Time,TemperatureF,DewpointF,PressureIn,WindDirection,WindDirectionDegrees,WindSpeedMPH,WindSpeedGustMPH,Humidity,HourlyPrecipIn,Conditions,Clouds,dailyrainin,SoftwareType,DateUTC
2013-03-16 00:12:00,48.8,49.0,30.11,WNW,302,1.0,7.0,99,0.00,,,0.00,weatherlink.com 1.10,2013-03-16 07:12:00,
2013-03-16 00:27:00,48.9,49.0,30.10,West,263,4.0,6.0,99,0.00,,,0.00,weatherlink.com 1.10,2013-03-16 07:27:00,
2013-03-16 00:42:00,48.7,49.0,30.10,WNW,301,6.0,7.0,99,0.00,,,0.00,weatherlink.com 1.10,2013-03-16 07:42:00,
2013-03-16 00:57:00,48.8,49.0,30.09,West,281,0.0,8.0,99,0.00,,,0.00,weatherlink.com 1.10,2013-03-16 07:57:00,
2013-03-16 01:12:00,48.6,48.0,30.09,North,-999,0.0,0.0,99,0.00,,,0.00,weatherlink.com 1.10,2013-03-16 08:12:00,
2013-03-16 01:27:00,49.1,49.0,30.10,WNW,286,3.0,6.0,99,0.00,,,0.00,weatherlink.com 1.10,2013-03-16 08:27:00,
2013-03-16 14:43:00,55.4,51.0,30.11,WNW,291,13.0,20.0,84,0.00,,,0.00,weatherlink.com 1.10,2013-03-16 21:43:00,
2013-03-16 14:58:00,55.9,51.0,30.11,West,274,12.0,21.0,84,0.00,,,0.00,weatherlink.com 1.10,2013-03-16 21:58:00,
2013-03-16 15:13:00,55.9,51.0,30.10,West,281,10.0,22.0,83,0.00,,,0.00,weatherlink.com 1.10,2013-03-16 22:13:00,
2013-03-16 15:28:00,56.3,51.0,30.09,West,278,13.0,20.0,81,0.00,,,0.00,weatherlink.com 1.10,2013-03-16 22:28:00,
2013-03-16 15:43:00,56.4,50.0,30.09,WNW,283,21.0,22.0,79,0.00,,,0.00,weatherlink.com 1.10,2013-03-16 22:43:00,
2013-03-16 15:58:00,57.0,51.0,30.09,WNW,301,10.0,19.0,79,0.00,,,0.00,weatherlink.com 1.10,2013-03-16 22:58:00,
2013-03-16 16:13:00,56.6,50.0,30.09,WNW,290,14.0,24.0,79,0.00,,,0.00,weatherlink.com 1.10,2013-03-16 23:13:00,
2013-03-16 16:28:00,57.0,50.0,30.09,WNW,295,17.0,21.0,78,0.00,,,0.00,weatherlink.com 1.10,2013-03-16 23:28:00,
2013-03-16 16:43:00,56.7,50.0,30.09,WNW,288,9.0,19.0,77,0.00,,,0.00,weatherlink.com 1.10,2013-03-16 23:43:00,
2013-03-16 16:58:00,55.6,50.0,30.08,NW,318,7.0,22.0,80,0.00,,,0.00,weatherlink.com 1.10,2013-03-16 23:58:00,
2013-03-16 17:13:00,54.6,50.0,30.08,WNW,300,12.0,21.0,83,0.00,,,0.00,weatherlink.com 1.10,2013-03-17 00:13:00,
2013-03-16 17:28:00,54.3,49.0,30.08,NW,304,14.0,18.0,83,0.00,,,0.00,weatherlink.com 1.10,2013-03-17 00:28:00,
2013-03-16 17:42:00,53.6,49.0,30.08,NW,311,12.0,20.0,84,0.00,,,0.00,weatherlink.com 1.10,2013-03-17 00:42:00,
2013-03-16 17:58:00,53.6,49.0,30.08,WNW,297,13.0,24.0,84,0.00,,,0.00,weatherlink.com 1.10,2013-03-17 00:58:00,
2013-03-16 18:13:00,54.2,50.0,30.08,WNW,294,14.0,20.0,84,0.00,,,0.00,weatherlink.com 1.10,2013-03-17 01:13:00,
2013-03-16 18:28:00,53.7,49.0,30.08,NW,315,15.0,23.0,83,0.00,,,0.00,weatherlink.com 1.10,2013-03-17 01:28:00,
2013-03-16 18:43:00,53.1,49.0,30.08,WNW,297,12.0,22.0,85,0.00,,,0.00,weatherlink.com 1.10,2013-03-17 01:43:00,
2013-03-16 18:58:00,52.5,49.0,30.08,West,273,8.0,21.0,87,0.00,,,0.00,weatherlink.com 1.10,2013-03-17 01:58:00,
2013-03-16 19:13:00,52.0,48.0,30.09,West,273,11.0,15.0,87,0.00,,,0.00,weatherlink.com 1.10,2013-03-17 02:13:00,
2013-03-16 19:28:00,51.6,48.0,30.09,WNW,291,18.0,18.0,87,0.00,,,0.00,weatherlink.com 1.10,2013-03-17 02:28:00,
2013-03-16 19:43:00,51.4,48.0,30.09,NW,307,15.0,24.0,87,0.00,,,0.00,weatherlink.com 1.10,2013-03-17 02:43:00,
2013-03-16 19:58:00,51.0,48.0,30.10,West,267,9.0,21.0,88,0.00,,,0.00,weatherlink.com 1.10,2013-03-17 02:58:00,
2013-03-16 20:13:00,50.8,48.0,30.10,WNW,295,7.0,13.0,89,0.00,,,0.00,weatherlink.com 1.10,2013-03-17 03:13:00,
2013-03-16 20:28:00,51.1,48.0,30.10,NW,304,6.0,12.0,89,0.00,,,0.00,weatherlink.com 1.10,2013-03-17 03:28:00,
2013-03-16 20:43:00,51.2,48.0,30.10,West,274,11.0,18.0,89,0.00,,,0.00,weatherlink.com 1.10,2013-03-17 03:43:00,
2013-03-16 20:58:00,51.3,48.0,30.11,WNW,286,13.0,19.0,89,0.00,,,0.00,weatherlink.com 1.10,2013-03-17 03:58:00,
2013-03-16 21:13:00,51.1,48.0,30.12,WNW,301,9.0,16.0,89,0.00,,,0.00,weatherlink.com 1.10,2013-03-17 04:13:00,
2013-03-16 21:28:00,50.9,48.0,30.13,WNW,302,9.0,16.0,89,0.00,,,0.00,weatherlink.com 1.10,2013-03-17 04:28:00,
2013-03-16 21:44:00,50.8,48.0,30.14,WNW,301,8.0,16.0,90,0.00,,,0.00,weatherlink.com 1.10,2013-03-17 04:44:00,
2013-03-16 21:58:00,50.6,48.0,30.14,WNW,290,14.0,17.0,91,0.00,,,0.00,weatherlink.com 1.10,2013-03-17 04:58:00,
2013-03-16 22:13:00,50.6,48.0,30.15,WNW,301,10.0,15.0,91,0.00,,,0.00,weatherlink.com 1.10,2013-03-17 05:13:00,
2013-03-16 22:28:00,50.4,48.0,30.16,West,281,8.0,16.0,91,0.00,,,0.00,weatherlink.com 1.10,2013-03-17 05:28:00,
2013-03-16 22:43:00,50.6,48.0,30.15,WNW,295,10.0,19.0,91,0.00,,,0.00,weatherlink.com 1.10,2013-03-17 05:43:00,
2013-03-16 22:58:00,50.5,48.0,30.16,WNW,284,13.0,18.0,91,0.00,,,0.00,weatherlink.com 1.10,2013-03-17 05:58:00,
2013-03-16 23:13:00,50.5,48.0,30.16,WNW,301,11.0,16.0,91,0.00,,,0.00,weatherlink.com 1.10,2013-03-17 06:13:00,
2013-03-16 23:28:00,50.2,48.0,30.17,WNW,294,13.0,18.0,92,0.00,,,0.00,weatherlink.com 1.10,2013-03-17 06:28:00,
2013-03-16 23:43:00,50.1,48.0,30.16,NW,312,9.0,18.0,92,0.00,,,0.00,weatherlink.com 1.10,2013-03-17 06:43:00,
2013-03-16 23:58:00,49.9,48.0,30.16,WNW,301,6.0,16.0,93,0.00,,,0.00,weatherlink.com 1.10,2013-03-17 06:58:00,